Time;durP1;ratioP1;P1;durP2;ratioP2;P2;SDS_P1;SDS_P2;PMS_P1;PMS_P2;Temp;Humidity;BMP_temperature;BMP_pressure;BME280_temperature;BME280_humidity;BME280_pressure;Samples;Min_cycle;Max_cycle;Signal;HPM_P1;HPM_P2
2022/02/02 00:00:34;;;;;;;8.95;1.42;;;;;;;;;;5033285;28;20040;-69
2022/02/02 00:03:06;;;;;;;8.05;1.30;;;;;;;;;;5032728;28;20025;-68
2022/02/02 00:08:20;;;;;;;13.73;1.83;;;;;;;;;;5033243;28;20030;-68
2022/02/02 00:13:27;;;;;;;12.70;1.73;;;;;;;;;;5032286;28;20036;-69
2022/02/02 00:21:16;;;;;;;8.80;1.70;;;;;;;;;;5033073;28;20028;-69
2022/02/02 00:23:46;;;;;;;16.70;2.25;;;;;;;;;;5032098;28;20021;-68
2022/02/02 00:26:25;;;;;;;12.70;2.50;;;;;;;;;;5032808;28;20041;-70
2022/02/02 00:28:56;;;;;;;24.92;3.45;;;;;;;;;;5031429;28;20418;-68
2022/02/02 00:31:27;;;;;;;19.80;4.30;;;;;;;;;;5032760;28;20024;-68
2022/02/02 00:33:59;;;;;;;18.85;2.80;;;;;;;;;;5031531;28;20032;-68
2022/02/02 00:36:33;;;;;;;21.45;3.17;;;;;;;;;;5032652;28;20029;-69
2022/02/02 00:38:59;;;;;;;15.45;4.40;;;;;;;;;;5031249;28;20045;-70
2022/02/02 00:41:25;;;;;;;17.15;2.70;;;;;;;;;;5032522;28;20025;-68
2022/02/02 00:43:55;;;;;;;14.38;4.13;;;;;;;;;;5030327;28;20052;-68
2022/02/02 00:46:24;;;;;;;13.93;3.20;;;;;;;;;;5032333;28;20480;-68
2022/02/02 00:48:52;;;;;;;14.40;3.70;;;;;;;;;;5032381;28;20395;-68
2022/02/02 00:51:23;;;;;;;13.85;2.30;;;;;;;;;;5031771;28;20092;-68
2022/02/02 00:53:49;;;;;;;11.98;2.75;;;;;;;;;;5031340;28;20033;-68
2022/02/02 00:56:15;;;;;;;14.10;3.92;;;;;;;;;;5032708;28;20029;-67
2022/02/02 00:58:41;;;;;;;13.60;2.30;;;;;;;;;;5033967;28;20041;-68
2022/02/02 01:01:07;;;;;;;16.85;3.40;;;;;;;;;;5033015;28;20044;-68
2022/02/02 01:03:33;;;;;;;15.18;2.58;;;;;;;;;;5031478;28;20075;-68
2022/02/02 01:06:02;;;;;;;12.02;2.42;;;;;;;;;;5032326;28;20486;-69
2022/02/02 01:08:45;;;;;;;22.52;2.92;;;;;;;;;;5032299;28;20355;-69
2022/02/02 01:21:57;;;;;;;15.68;2.78;;;;;;;;;;5031825;28;20120;-70
2022/02/02 01:30:09;;;;;;;22.90;3.53;;;;;;;;;;5019467;28;20447;-69
2022/02/02 01:32:35;;;;;;;16.98;3.33;;;;;;;;;;5031616;28;20407;-71
2022/02/02 01:35:01;;;;;;;18.92;2.78;;;;;;;;;;5031300;28;20025;-69
2022/02/02 01:37:28;;;;;;;20.73;3.75;;;;;;;;;;5031605;28;20479;-70
2022/02/02 01:40:05;;;;;;;16.35;2.75;;;;;;;;;;5030405;28;20025;-70
2022/02/02 01:42:40;;;;;;;14.68;2.72;;;;;;;;;;5031733;28;20468;-69
2022/02/02 01:45:15;;;;;;;22.63;3.88;;;;;;;;;;5031326;28;20026;-69
2022/02/02 01:47:53;;;;;;;15.95;2.95;;;;;;;;;;5031725;28;20017;-69
2022/02/02 01:50:23;;;;;;;20.27;3.85;;;;;;;;;;5030196;28;20487;-68
2022/02/02 01:55:38;;;;;;;20.90;3.95;;;;;;;;;;5031864;28;20030;-69
2022/02/02 01:58:17;;;;;;;19.25;3.50;;;;;;;;;;5031489;28;20101;-69
2022/02/02 02:00:43;;;;;;;26.58;4.18;;;;;;;;;;5031556;28;20030;-69
2022/02/02 02:03:09;;;;;;;22.27;3.75;;;;;;;;;;5031893;28;20029;-69
2022/02/02 02:05:35;;;;;;;21.10;4.13;;;;;;;;;;5035354;28;20036;-69
2022/02/02 02:08:01;;;;;;;24.77;4.45;;;;;;;;;;5035706;28;20101;-70
2022/02/02 02:10:27;;;;;;;20.35;3.95;;;;;;;;;;5035433;28;20025;-70
2022/02/02 02:12:58;;;;;;;16.45;3.65;;;;;;;;;;5034993;28;20499;-69
2022/02/02 02:15:29;;;;;;;21.08;3.30;;;;;;;;;;5035362;28;20024;-69
2022/02/02 02:17:55;;;;;;;21.42;3.65;;;;;;;;;;5014907;28;20341;-71
2022/02/02 02:20:21;;;;;;;12.13;3.40;;;;;;;;;;5015416;28;20030;-70
2022/02/02 02:22:47;;;;;;;20.17;3.85;;;;;;;;;;5013392;28;20032;-69
2022/02/02 02:25:20;;;;;;;19.77;3.78;;;;;;;;;;5015230;28;20022;-68
2022/02/02 02:27:46;;;;;;;20.67;4.30;;;;;;;;;;5014183;28;20026;-70
2022/02/02 02:31:02;;;;;;;17.80;3.80;;;;;;;;;;5015600;28;20032;-68
2022/02/02 02:36:21;;;;;;;24.25;4.60;;;;;;;;;;5035074;28;20057;-69
2022/02/02 02:57:52;;;;;;;19.05;3.83;;;;;;;;;;5034824;28;20040;-69
2022/02/02 03:29:52;;;;;;;22.73;3.55;;;;;;;;;;5034408;28;20163;-69
2022/02/02 03:30:17;;;;;;;17.92;3.17;;;;;;;;;;5033731;28;20041;-68
2022/02/02 03:49:22;;;;;;;11.52;2.92;;;;;;;;;;5033817;28;20022;-69
2022/02/02 03:49:33;;;;;;;16.52;3.72;;;;;;;;;;5033500;28;20040;-70
2022/02/02 04:07:52;;;;;;;26.58;5.72;;;;;;;;;;5035821;28;20040;-69
2022/02/02 04:10:18;;;;;;;26.80;4.88;;;;;;;;;;5033977;28;20059;-68
2022/02/02 04:13:39;;;;;;;14.70;2.88;;;;;;;;;;5032919;28;20052;-73
2022/02/02 04:56:54;;;;;;;17.33;3.42;;;;;;;;;;5013458;28;20029;-74
2022/02/02 05:17:29;;;;;;;19.23;3.70;;;;;;;;;;5012752;28;20499;-73
2022/02/02 05:52:11;;;;;;;12.18;2.72;;;;;;;;;;5012388;28;20026;-73
2022/02/02 05:54:37;;;;;;;25.08;3.70;;;;;;;;;;5011539;28;20026;-73
2022/02/02 05:57:03;;;;;;;16.95;3.03;;;;;;;;;;5011027;28;20566;-73
2022/02/02 05:59:32;;;;;;;15.35;4.03;;;;;;;;;;5012091;28;20033;-73
2022/02/02 06:01:59;;;;;;;14.73;3.22;;;;;;;;;;5012017;28;20431;-73
2022/02/02 06:04:25;;;;;;;27.92;4.32;;;;;;;;;;5011573;28;20068;-74
2022/02/02 06:06:53;;;;;;;15.30;2.90;;;;;;;;;;5012291;28;20114;-73
2022/02/02 06:09:20;;;;;;;19.48;3.78;;;;;;;;;;5010859;28;20072;-74
2022/02/02 06:11:51;;;;;;;14.40;2.90;;;;;;;;;;5012103;28;20018;-73
2022/02/02 06:14:25;;;;;;;25.92;3.85;;;;;;;;;;5009997;28;20112;-73
2022/02/02 06:16:53;;;;;;;18.60;3.83;;;;;;;;;;5012555;28;20026;-74
2022/02/02 06:19:25;;;;;;;15.75;3.35;;;;;;;;;;5012219;28;20141;-73
2022/02/02 06:21:56;;;;;;;12.48;2.78;;;;;;;;;;5011898;28;20037;-73
2022/02/02 06:24:29;;;;;;;20.55;3.70;;;;;;;;;;5010675;28;20034;-73
2022/02/02 06:26:59;;;;;;;23.90;3.53;;;;;;;;;;5010839;28;20535;-74
2022/02/02 06:29:25;;;;;;;28.08;4.43;;;;;;;;;;5011437;28;20029;-73
2022/02/02 06:31:52;;;;;;;13.73;3.58;;;;;;;;;;5011318;28;20094;-72
2022/02/02 06:34:23;;;;;;;17.65;3.58;;;;;;;;;;5009538;28;20037;-73
2022/02/02 06:36:50;;;;;;;15.93;2.97;;;;;;;;;;5011781;28;20564;-73
2022/02/02 06:39:17;;;;;;;11.30;3.00;;;;;;;;;;5011963;28;20042;-72
2022/02/02 06:41:42;;;;;;;14.50;3.05;;;;;;;;;;5012043;28;20446;-73
2022/02/02 06:44:08;;;;;;;16.92;3.03;;;;;;;;;;5011053;28;20120;-74
2022/02/02 06:46:38;;;;;;;19.30;3.03;;;;;;;;;;5011983;28;20396;-74
2022/02/02 06:49:04;;;;;;;15.95;3.55;;;;;;;;;;5012980;28;20391;-74
2022/02/02 06:54:12;;;;;;;17.55;3.47;;;;;;;;;;5014562;28;20504;-73
2022/02/02 06:56:58;;;;;;;22.13;3.95;;;;;;;;;;5014359;28;20022;-73
2022/02/02 07:04:45;;;;;;;26.42;3.90;;;;;;;;;;5016781;28;20025;-74
2022/02/02 07:07:31;;;;;;;15.40;3.00;;;;;;;;;;5015562;28;20046;-74
2022/02/02 07:10:15;;;;;;;22.08;3.33;;;;;;;;;;5014832;28;20076;-73
2022/02/02 07:15:25;;;;;;;15.35;3.38;;;;;;;;;;5014965;28;20026;-73
2022/02/02 07:20:51;;;;;;;24.75;4.68;;;;;;;;;;5015134;28;20137;-73
2022/02/02 07:23:36;;;;;;;19.55;2.75;;;;;;;;;;5013818;28;20030;-72
2022/02/02 07:26:31;;;;;;;18.58;2.88;;;;;;;;;;5013807;28;20519;-71
2022/02/02 07:34:07;;;;;;;23.52;3.13;;;;;;;;;;5013251;28;20395;-71
2022/02/02 07:36:38;;;;;;;14.65;2.97;;;;;;;;;;5014716;28;20072;-71
2022/02/02 07:39:08;;;;;;;16.73;3.13;;;;;;;;;;5014490;28;20056;-71
2022/02/02 07:41:37;;;;;;;18.70;3.00;;;;;;;;;;5014127;28;20025;-73
2022/02/02 07:44:09;;;;;;;13.68;2.83;;;;;;;;;;5013893;28;20033;-72
2022/02/02 07:46:37;;;;;;;19.73;3.75;;;;;;;;;;5013580;28;20399;-71
2022/02/02 07:49:06;;;;;;;20.30;3.45;;;;;;;;;;5014806;28;20083;-71
2022/02/02 07:51:34;;;;;;;16.05;3.17;;;;;;;;;;5014284;28;20072;-71
2022/02/02 07:54:03;;;;;;;15.88;3.00;;;;;;;;;;5013514;28;20044;-70
2022/02/02 07:56:39;;;;;;;13.50;2.60;;;;;;;;;;5013513;28;20029;-70
2022/02/02 07:59:15;;;;;;;14.20;2.50;;;;;;;;;;5013517;28;20049;-75
2022/02/02 08:01:43;;;;;;;18.67;3.22;;;;;;;;;;5011532;28;20029;-72
2022/02/02 08:04:09;;;;;;;12.98;2.97;;;;;;;;;;5011879;28;20026;-71
2022/02/02 08:06:39;;;;;;;13.15;2.55;;;;;;;;;;5014439;28;20026;-72
2022/02/02 08:09:06;;;;;;;14.68;2.65;;;;;;;;;;5012448;28;20029;-72
2022/02/02 08:11:34;;;;;;;14.07;3.42;;;;;;;;;;5013930;28;20101;-71
2022/02/02 08:14:02;;;;;;;21.02;3.53;;;;;;;;;;5013202;28;20490;-71
2022/02/02 08:16:30;;;;;;;16.92;3.28;;;;;;;;;;5014033;28;20424;-71
2022/02/02 08:18:56;;;;;;;15.50;2.80;;;;;;;;;;5014125;28;20472;-71
2022/02/02 08:21:22;;;;;;;16.30;3.25;;;;;;;;;;5014174;28;20037;-72
2022/02/02 08:23:49;;;;;;;21.95;3.80;;;;;;;;;;5013019;28;20029;-72
2022/02/02 08:26:16;;;;;;;19.08;3.70;;;;;;;;;;5012702;28;20026;-72
2022/02/02 08:28:43;;;;;;;16.10;3.97;;;;;;;;;;5014025;28;20087;-71
2022/02/02 08:31:09;;;;;;;14.55;2.90;;;;;;;;;;5014123;28;20022;-71
2022/02/02 08:33:39;;;;;;;15.30;3.50;;;;;;;;;;5013072;28;20053;-72
2022/02/02 08:36:12;;;;;;;22.83;4.38;;;;;;;;;;5013946;28;20025;-72
2022/02/02 08:41:36;;;;;;;20.33;3.30;;;;;;;;;;5014260;28;20037;-71
2022/02/02 08:44:13;;;;;;;21.77;4.60;;;;;;;;;;5011439;28;20495;-72
2022/02/02 08:46:45;;;;;;;20.35;3.10;;;;;;;;;;5013677;28;20053;-71
2022/02/02 08:49:13;;;;;;;17.23;4.00;;;;;;;;;;5013761;28;20377;-71
2022/02/02 08:51:43;;;;;;;17.10;3.47;;;;;;;;;;5013665;28;20478;-71
2022/02/02 09:01:45;;;;;;;14.50;3.08;;;;;;;;;;5013409;28;20056;-71
2022/02/02 09:06:56;;;;;;;23.23;3.05;;;;;;;;;;5013266;28;20036;-70
2022/02/02 09:09:36;;;;;;;17.60;3.75;;;;;;;;;;5011800;28;20038;-72
2022/02/02 09:36:30;;;;;;;23.63;3.72;;;;;;;;;;5012482;28;20032;-72
2022/02/02 09:38:58;;;;;;;26.75;3.53;;;;;;;;;;5012532;28;20030;-72
2022/02/02 09:44:13;;;;;;;14.18;3.38;;;;;;;;;;5011661;28;20084;-72
2022/02/02 09:46:52;;;;;;;16.13;3.45;;;;;;;;;;5012256;28;20054;-71
2022/02/02 09:49:26;;;;;;;18.13;2.95;;;;;;;;;;5010935;28;20030;-72
2022/02/02 09:52:06;;;;;;;11.88;2.67;;;;;;;;;;5012557;28;20103;-72
2022/02/02 09:55:20;;;;;;;11.80;3.50;;;;;;;;;;5011549;28;20045;-71
2022/02/02 10:00:00;;;;;;;16.58;3.65;;;;;;;;;;5012662;28;20045;-72
2022/02/02 10:02:34;;;;;;;15.27;3.50;;;;;;;;;;5012544;28;20026;-72
2022/02/02 10:05:14;;;;;;;22.70;3.03;;;;;;;;;;5011676;28;20036;-72
2022/02/02 10:13:35;;;;;;;19.63;4.10;;;;;;;;;;4992427;28;20049;-71
2022/02/02 10:16:01;;;;;;;12.02;3.15;;;;;;;;;;5012882;28;20022;-71
2022/02/02 10:18:30;;;;;;;16.60;3.15;;;;;;;;;;5012737;28;20026;-71
2022/02/02 10:20:56;;;;;;;16.42;3.03;;;;;;;;;;5013016;28;20021;-71
2022/02/02 10:23:23;;;;;;;15.57;3.00;;;;;;;;;;5012163;28;20495;-72
2022/02/02 10:25:57;;;;;;;15.13;2.80;;;;;;;;;;5014148;28;20484;-72
2022/02/02 10:28:23;;;;;;;17.92;3.90;;;;;;;;;;5015785;28;20045;-72
2022/02/02 10:30:53;;;;;;;12.77;2.58;;;;;;;;;;5022642;28;20116;-71
2022/02/02 10:33:26;;;;;;;15.23;2.92;;;;;;;;;;5022220;28;20044;-71
2022/02/02 10:35:53;;;;;;;20.50;3.88;;;;;;;;;;5023926;28;20037;-71
2022/02/02 10:38:27;;;;;;;22.38;3.83;;;;;;;;;;5020225;28;20478;-71
2022/02/02 10:41:13;;;;;;;9.43;3.03;;;;;;;;;;5018227;28;20503;-72
2022/02/02 10:43:43;;;;;;;14.75;2.35;;;;;;;;;;5017158;28;20030;-72
2022/02/02 10:46:15;;;;;;;20.85;3.95;;;;;;;;;;5015630;28;20507;-71
2022/02/02 10:48:57;;;;;;;17.95;3.88;;;;;;;;;;5019571;28;20045;-71
2022/02/02 10:51:45;;;;;;;8.68;2.55;;;;;;;;;;5024312;28;20521;-71
2022/02/02 10:54:34;;;;;;;20.38;3.00;;;;;;;;;;5038842;23;20188;-71
2022/02/02 10:57:08;;;;;;;14.57;3.08;;;;;;;;;;5016200;28;20025;-70
2022/02/02 11:07:18;;;;;;;12.95;2.50;;;;;;;;;;5015997;28;20045;-72
2022/02/02 11:09:48;;;;;;;18.50;3.65;;;;;;;;;;5015611;28;20034;-71
2022/02/02 11:12:18;;;;;;;19.08;3.30;;;;;;;;;;5015292;28;20117;-70
2022/02/02 11:14:44;;;;;;;15.10;2.83;;;;;;;;;;5014264;28;20132;-71
2022/02/02 11:17:23;;;;;;;10.65;2.40;;;;;;;;;;5015005;28;20022;-70
2022/02/02 11:19:50;;;;;;;15.13;3.53;;;;;;;;;;5014958;28;20076;-71
2022/02/02 11:22:42;;;;;;;23.17;3.28;;;;;;;;;;5014977;28;20049;-70
2022/02/02 11:25:11;;;;;;;19.42;2.70;;;;;;;;;;5012436;28;20034;-70
2022/02/02 11:27:42;;;;;;;16.48;4.40;;;;;;;;;;5011809;28;20575;-71
2022/02/02 11:30:08;;;;;;;;;;;;;;;;;;5015089;28;20030;-70
2022/02/02 11:32:42;;;;;;;16.25;2.55;;;;;;;;;;5013545;28;20367;-69
2022/02/02 11:35:28;;;;;;;16.55;3.35;;;;;;;;;;5012758;28;20062;-72
2022/02/02 11:37:58;;;;;;;10.10;1.65;;;;;;;;;;5013132;28;20026;-69
2022/02/02 11:40:24;;;;;;;9.45;2.35;;;;;;;;;;5013366;28;20030;-72
2022/02/02 11:45:40;;;;;;;10.13;2.10;;;;;;;;;;5014563;28;20407;-70
2022/02/02 11:48:14;;;;;;;11.95;2.00;;;;;;;;;;5014299;28;20092;-71
2022/02/02 11:50:51;;;;;;;11.98;2.72;;;;;;;;;;5014001;28;20037;-72
2022/02/02 11:53:36;;;;;;;16.27;3.40;;;;;;;;;;5011818;28;20057;-71
2022/02/02 11:56:06;;;;;;;17.52;3.28;;;;;;;;;;5014249;28;20026;-71
2022/02/02 11:58:37;;;;;;;12.88;2.53;;;;;;;;;;5013947;28;20033;-71
2022/02/02 12:03:49;;;;;;;13.57;2.97;;;;;;;;;;5013331;28;20118;-70
2022/02/02 12:09:09;;;;;;;15.27;2.85;;;;;;;;;;5013602;28;20034;-70
2022/02/02 12:27:49;;;;;;;14.52;2.25;;;;;;;;;;5011875;28;20181;-71
2022/02/02 12:35:58;;;;;;;11.95;2.17;;;;;;;;;;5012967;28;20080;-71
2022/02/02 12:57:38;;;;;;;8.45;1.92;;;;;;;;;;5013272;28;20630;-70
2022/02/02 13:00:07;;;;;;;16.77;3.08;;;;;;;;;;5011885;28;20034;-70
2022/02/02 13:02:38;;;;;;;12.52;2.92;;;;;;;;;;5012653;28;20014;-71
2022/02/02 13:05:04;;;;;;;11.57;2.90;;;;;;;;;;5011000;28;20163;-71
2022/02/02 13:07:31;;;;;;;17.77;2.30;;;;;;;;;;5012509;28;20025;-73
2022/02/02 13:09:58;;;;;;;7.25;1.70;;;;;;;;;;5011011;28;20496;-71
2022/02/02 13:12:25;;;;;;;10.50;2.33;;;;;;;;;;5012579;28;20065;-71
2022/02/02 13:15:07;;;;;;;5.93;2.25;;;;;;;;;;5011323;28;20025;-71
2022/02/02 13:17:41;;;;;;;14.85;2.50;;;;;;;;;;5012128;28;20025;-71
2022/02/02 13:20:11;;;;;;;7.30;1.73;;;;;;;;;;5012299;28;20099;-70
2022/02/02 13:22:38;;;;;;;10.45;3.05;;;;;;;;;;5011034;28;20037;-71
2022/02/02 13:25:16;;;;;;;9.68;2.17;;;;;;;;;;5012063;28;20022;-70
2022/02/02 13:27:50;;;;;;;6.57;2.28;;;;;;;;;;5010745;28;20056;-71
2022/02/02 13:30:36;;;;;;;12.90;2.72;;;;;;;;;;5012261;28;20026;-70
2022/02/02 13:33:31;;;;;;;15.52;2.28;;;;;;;;;;5011584;28;20032;-71
2022/02/02 13:36:15;;;;;;;21.08;3.42;;;;;;;;;;5012257;28;20026;-71
2022/02/02 13:42:30;;;;;;;16.10;2.17;;;;;;;;;;5012333;28;20021;-70
2022/02/02 13:47:37;;;;;;;8.63;1.50;;;;;;;;;;5012058;28;20507;-71
2022/02/02 13:52:35;;;;;;;10.70;2.00;;;;;;;;;;5011988;28;20435;-71
2022/02/02 13:55:28;;;;;;;10.30;2.53;;;;;;;;;;5010073;28;20030;-70
2022/02/02 13:58:40;;;;;;;11.07;2.22;;;;;;;;;;5012025;28;20053;-71
2022/02/02 14:01:15;;;;;;;8.45;1.88;;;;;;;;;;5016242;28;20033;-70
2022/02/02 14:07:20;;;;;;;14.80;1.85;;;;;;;;;;5016057;28;20076;-71
2022/02/02 14:33:17;;;;;;;9.07;2.30;;;;;;;;;;5014638;28;20096;-70
2022/02/02 14:35:45;;;;;;;13.57;2.53;;;;;;;;;;5015486;28;20033;-71
2022/02/02 14:38:13;;;;;;;12.02;2.83;;;;;;;;;;5015671;28;20365;-70
2022/02/02 14:43:08;;;;;;;10.88;1.75;;;;;;;;;;5015129;28;20076;-70
2022/02/02 14:45:38;;;;;;;11.18;2.15;;;;;;;;;;5015902;28;20029;-70
2022/02/02 14:48:11;;;;;;;8.15;2.35;;;;;;;;;;5015348;28;20044;-70
2022/02/02 15:30:30;;;;;;;14.18;2.67;;;;;;;;;;5014359;28;20026;-70
2022/02/02 15:33:00;;;;;;;7.70;2.15;;;;;;;;;;5012294;28;20495;-71
2022/02/02 15:35:27;;;;;;;10.50;2.13;;;;;;;;;;5014379;28;20080;-70
2022/02/02 15:38:06;;;;;;;7.50;1.90;;;;;;;;;;5014698;28;20018;-71
2022/02/02 15:40:37;;;;;;;12.25;2.10;;;;;;;;;;5013734;28;20025;-70
2022/02/02 15:59:37;;;;;;;6.30;1.77;;;;;;;;;;5014890;28;20026;-71
2022/02/02 16:02:19;;;;;;;7.88;2.05;;;;;;;;;;5012616;28;20030;-71
2022/02/02 16:04:45;;;;;;;11.52;2.20;;;;;;;;;;5013110;28;20101;-70
2022/02/02 16:07:21;;;;;;;6.72;1.33;;;;;;;;;;5013752;28;20026;-70
2022/02/02 16:09:51;;;;;;;9.80;2.03;;;;;;;;;;5013854;28;20472;-70
2022/02/02 16:15:00;;;;;;;11.90;1.95;;;;;;;;;;5012759;28;20101;-71
2022/02/02 16:36:28;;;;;;;10.57;2.35;;;;;;;;;;5013096;28;20423;-71
2022/02/02 16:39:17;;;;;;;13.85;2.90;;;;;;;;;;5012739;28;20026;-70
2022/02/02 16:44:27;;;;;;;12.80;2.47;;;;;;;;;;5012201;28;20087;-71
2022/02/02 16:46:53;;;;;;;16.30;2.38;;;;;;;;;;5012533;28;20022;-71
2022/02/02 16:49:20;;;;;;;12.13;2.10;;;;;;;;;;5012462;28;20120;-71
2022/02/02 16:51:46;;;;;;;9.60;2.45;;;;;;;;;;5012549;28;20029;-70
2022/02/02 16:54:27;;;;;;;12.30;2.80;;;;;;;;;;5026364;22;20415;-65
2022/02/02 17:34:53;;;;;;;10.18;2.35;;;;;;;;;;5011024;28;20045;-65
2022/02/02 17:37:47;;;;;;;15.63;2.17;;;;;;;;;;5011523;28;20025;-64
2022/02/02 17:40:12;;;;;;;7.18;1.63;;;;;;;;;;5011458;28;20084;-68
2022/02/02 17:45:39;;;;;;;6.47;2.22;;;;;;;;;;5011282;28;20447;-67
2022/02/02 18:18:44;;;;;;;7.60;2.15;;;;;;;;;;5011362;28;20131;-68
2022/02/02 18:20:50;;;;;;;9.35;1.98;;;;;;;;;;5011841;28;20129;-64
2022/02/02 18:23:26;;;;;;;6.97;2.13;;;;;;;;;;5011139;28;20101;-66
2022/02/02 18:26:10;;;;;;;9.20;2.85;;;;;;;;;;5011788;28;20030;-68
2022/02/02 18:31:33;;;;;;;10.18;2.72;;;;;;;;;;5011477;28;20482;-67
2022/02/02 18:42:57;;;;;;;10.88;2.47;;;;;;;;;;5011720;28;20027;-70
2022/02/02 19:00:32;;;;;;;12.98;2.90;;;;;;;;;;4996843;28;20045;-68
2022/02/02 20:03:18;;;;;;;8.63;2.60;;;;;;;;;;5013282;28;20048;-68
2022/02/02 20:05:45;;;;;;;5.93;1.90;;;;;;;;;;5011979;28;20045;-70
2022/02/02 20:08:36;;;;;;;7.22;1.75;;;;;;;;;;5013592;28;20060;-69
2022/02/02 20:11:08;;;;;;;6.95;1.55;;;;;;;;;;5013379;28;20037;-68
2022/02/02 20:13:36;;;;;;;9.85;1.63;;;;;;;;;;5012969;28;20030;-68
2022/02/02 20:16:03;;;;;;;10.73;2.33;;;;;;;;;;5003867;28;20033;-68
2022/02/02 20:18:31;;;;;;;8.80;1.77;;;;;;;;;;4993905;28;20100;-67
2022/02/02 20:21:00;;;;;;;7.15;2.10;;;;;;;;;;4994229;28;20026;-67
2022/02/02 20:23:28;;;;;;;9.70;1.50;;;;;;;;;;4993476;28;20022;-68
2022/02/02 20:25:55;;;;;;;12.20;1.45;;;;;;;;;;4994111;28;20441;-66
2022/02/02 20:28:22;;;;;;;11.85;2.28;;;;;;;;;;4993828;28;20096;-70
2022/02/02 20:30:48;;;;;;;10.38;2.13;;;;;;;;;;4994082;28;20026;-68
2022/02/02 20:33:14;;;;;;;6.60;1.85;;;;;;;;;;5010146;28;20030;-70
2022/02/02 20:35:40;;;;;;;80.82;32.05;;;;;;;;;;5009384;28;20022;-73
2022/02/02 20:38:06;;;;;;;57.50;20.15;;;;;;;;;;5007934;28;20132;-72
2022/02/02 20:40:32;;;;;;;84.20;30.80;;;;;;;;;;5013195;28;20480;-73
2022/02/02 20:43:07;;;;;;;43.88;13.77;;;;;;;;;;5012384;28;20030;-73
2022/02/02 21:04:31;;;;;;;19.25;5.00;;;;;;;;;;5011830;28;20029;-70
2022/02/02 21:14:57;;;;;;;17.63;4.57;;;;;;;;;;5011636;28;20430;-72
2022/02/02 21:17:26;;;;;;;19.17;5.78;;;;;;;;;;5012138;28;20013;-72
2022/02/02 21:22:20;;;;;;;54.40;16.70;;;;;;;;;;5012552;28;20030;-71
2022/02/02 21:27:19;;;;;;;45.35;13.15;;;;;;;;;;5011375;28;20188;-70
2022/02/02 21:29:46;;;;;;;50.28;13.00;;;;;;;;;;5011363;28;20033;-68
2022/02/02 21:32:12;;;;;;;17.25;4.07;;;;;;;;;;5010979;28;20026;-70
2022/02/02 21:34:39;;;;;;;27.60;8.75;;;;;;;;;;5011047;28;20033;-72
2022/02/02 21:37:06;;;;;;;22.67;7.40;;;;;;;;;;5010857;28;20022;-71
2022/02/02 21:39:36;;;;;;;19.77;5.00;;;;;;;;;;5011348;28;20049;-70
2022/02/02 21:42:03;;;;;;;46.80;13.80;;;;;;;;;;5008982;28;20030;-69
2022/02/02 21:44:29;;;;;;;26.35;6.63;;;;;;;;;;5009379;28;20091;-70
2022/02/02 21:46:56;;;;;;;11.30;3.78;;;;;;;;;;5012767;28;20121;-71
2022/02/02 21:49:24;;;;;;;22.00;5.97;;;;;;;;;;5012979;28;20580;-70
2022/02/02 21:52:04;;;;;;;36.97;9.82;;;;;;;;;;5011186;28;20033;-71
2022/02/02 21:54:30;;;;;;;25.33;6.70;;;;;;;;;;5010208;28;20057;-72
2022/02/02 21:56:58;;;;;;;45.95;10.48;;;;;;;;;;5011310;28;20088;-68
2022/02/02 21:59:24;;;;;;;21.15;6.82;;;;;;;;;;5004861;28;20030;-67
2022/02/02 22:01:50;;;;;;;25.63;5.30;;;;;;;;;;5010670;28;20026;-68
2022/02/02 22:04:16;;;;;;;15.57;3.10;;;;;;;;;;5009596;28;20041;-68
2022/02/02 22:06:42;;;;;;;10.07;2.53;;;;;;;;;;5010653;28;20440;-68
2022/02/02 22:09:08;;;;;;;22.55;5.28;;;;;;;;;;5010654;28;20025;-67
2022/02/02 22:11:34;;;;;;;19.58;4.03;;;;;;;;;;5010780;28;20018;-67
2022/02/02 22:14:06;;;;;;;33.13;5.97;;;;;;;;;;5010179;28;20036;-67
2022/02/02 22:16:32;;;;;;;21.75;4.82;;;;;;;;;;5010349;28;20018;-67
2022/02/02 22:18:58;;;;;;;15.25;3.85;;;;;;;;;;5004819;28;20026;-65
2022/02/02 22:21:27;;;;;;;20.63;5.22;;;;;;;;;;5013826;28;20030;-68
2022/02/02 22:23:53;;;;;;;16.77;2.88;;;;;;;;;;5014240;28;20026;-68
2022/02/02 22:26:20;;;;;;;19.60;5.50;;;;;;;;;;5012526;28;20084;-68
2022/02/02 22:28:46;;;;;;;22.75;4.53;;;;;;;;;;5010751;28;20117;-64
2022/02/02 22:31:12;;;;;;;21.17;5.68;;;;;;;;;;5004526;28;20026;-66
2022/02/02 22:33:38;;;;;;;16.60;3.50;;;;;;;;;;4994994;28;20037;-67
2022/02/02 22:36:05;;;;;;;15.00;4.30;;;;;;;;;;5015498;28;20468;-66
2022/02/02 22:38:31;;;;;;;18.30;5.00;;;;;;;;;;5015780;28;20044;-67
2022/02/02 22:40:58;;;;;;;17.45;3.33;;;;;;;;;;5015067;28;20341;-66
2022/02/02 22:43:27;;;;;;;17.13;3.55;;;;;;;;;;5014321;28;20030;-66
2022/02/02 22:45:53;;;;;;;24.30;4.60;;;;;;;;;;5015241;28;20387;-67
2022/02/02 22:48:22;;;;;;;22.15;4.00;;;;;;;;;;5013733;28;20104;-67
2022/02/02 22:50:48;;;;;;;17.80;4.35;;;;;;;;;;5015179;28;20487;-67
2022/02/02 22:53:17;;;;;;;28.20;6.53;;;;;;;;;;5037780;23;20149;-73
2022/02/02 22:55:43;;;;;;;9.80;3.13;;;;;;;;;;5013740;28;20046;-69
2022/02/02 22:58:09;;;;;;;24.20;4.78;;;;;;;;;;5015117;28;20049;-70
2022/02/02 23:00:38;;;;;;;19.10;3.70;;;;;;;;;;5014821;28;20057;-69
2022/02/02 23:03:09;;;;;;;20.10;3.50;;;;;;;;;;5014035;28;20852;-71
2022/02/02 23:05:42;;;;;;;24.25;5.28;;;;;;;;;;4995403;28;20038;-72
2022/02/02 23:08:10;;;;;;;23.13;6.13;;;;;;;;;;4995296;28;20507;-70
2022/02/02 23:10:37;;;;;;;13.30;3.35;;;;;;;;;;4993631;28;20084;-71
2022/02/02 23:13:04;;;;;;;14.27;3.08;;;;;;;;;;4994473;28;20046;-70
2022/02/02 23:18:21;;;;;;;22.30;4.68;;;;;;;;;;4989969;28;20034;-71
2022/02/02 23:20:55;;;;;;;11.02;3.40;;;;;;;;;;4975553;28;20477;-70
2022/02/02 23:23:22;;;;;;;18.23;2.95;;;;;;;;;;4989578;28;20034;-72
2022/02/02 23:25:49;;;;;;;12.63;3.83;;;;;;;;;;4975414;28;20409;-71
2022/02/02 23:28:21;;;;;;;22.35;4.47;;;;;;;;;;4975447;28;20274;-69
2022/02/02 23:30:50;;;;;;;20.05;3.88;;;;;;;;;;4989700;28;20489;-69
2022/02/02 23:33:16;;;;;;;15.15;4.47;;;;;;;;;;4988482;28;20174;-70
2022/02/02 23:35:43;;;;;;;23.65;5.28;;;;;;;;;;4998547;28;20108;-70
2022/02/02 23:38:10;;;;;;;16.75;3.65;;;;;;;;;;4994479;28;20457;-69
2022/02/02 23:41:20;;;;;;;20.65;3.90;;;;;;;;;;4994388;28;20034;-70
2022/02/02 23:43:23;;;;;;;20.05;5.88;;;;;;;;;;4993359;28;20037;-70
2022/02/02 23:45:53;;;;;;;20.80;4.38;;;;;;;;;;4994683;28;20030;-70
2022/02/02 23:48:21;;;;;;;20.63;4.80;;;;;;;;;;4994458;28;20109;-70
2022/02/02 23:50:47;;;;;;;20.15;4.03;;;;;;;;;;4994312;28;20030;-70
2022/02/02 23:53:14;;;;;;;20.35;4.63;;;;;;;;;;4988965;28;20037;-71
2022/02/02 23:55:41;;;;;;;22.73;4.97;;;;;;;;;;4991724;28;20536;-71
2022/02/02 23:58:14;;;;;;;20.33;4.97;;;;;;;;;;4983144;28;20018;-70
